Time;durP1;ratioP1;P1;durP2;ratioP2;P2;SDS_P1;SDS_P2;PMS_P1;PMS_P2;Temp;Humidity;BMP_temperature;BMP_pressure;BME280_temperature;BME280_humidity;BME280_pressure;Samples;Min_cycle;Max_cycle;Signal;HPM_P1;HPM_P2
2022/04/04 00:00:20;;;;;;;1.80;1.43;;;;;;;4.13;100.00;101539.53;5041315;28;20190;-75
2022/04/04 00:02:45;;;;;;;3.93;1.80;;;;;;;4.90;100.00;101578.47;5039467;28;20459;-74
2022/04/04 00:05:11;;;;;;;1.90;1.33;;;;;;;4.48;100.00;101500.94;5041774;28;20707;-74
2022/04/04 00:07:37;;;;;;;4.37;1.70;;;;;;;4.80;100.00;101552.88;5041934;28;20694;-74
2022/04/04 00:10:03;;;;;;;3.50;1.60;;;;;;;3.83;100.00;101381.28;5036275;28;20439;-74
2022/04/04 00:12:29;;;;;;;6.83;1.53;;;;;;;4.06;100.00;101472.91;5038862;28;20456;-74
2022/04/04 00:14:55;;;;;;;1.97;1.23;;;;;;;4.74;100.00;101557.81;5040205;28;20941;-74
2022/04/04 00:17:20;;;;;;;3.93;1.80;;;;;;;4.21;100.00;101502.50;5039694;28;20453;-75
2022/04/04 00:19:46;;;;;;;91.87;6.13;;;;;;;4.27;100.00;101487.81;5043281;28;20235;-75
2022/04/04 00:22:11;;;;;;;4.33;1.70;;;;;;;4.29;100.00;101469.94;5040889;28;20278;-74
2022/04/04 00:24:37;;;;;;;1.77;1.27;;;;;;;4.29;100.00;101492.03;5039427;28;20192;-75
2022/04/04 00:27:02;;;;;;;3.43;1.47;;;;;;;4.50;100.00;101504.28;5038109;28;20223;-74
2022/04/04 00:29:28;;;;;;;7.03;1.60;;;;;;;4.78;100.00;101510.53;5034572;28;20687;-73
2022/04/04 00:31:53;;;;;;;1.87;1.60;;;;;;;4.88;100.00;101506.00;5038335;28;20218;-74
2022/04/04 00:34:20;;;;;;;1.87;1.60;;;;;;;4.76;100.00;101505.34;5036648;28;20192;-75
2022/04/04 00:36:45;;;;;;;1.50;1.40;;;;;;;4.79;100.00;101500.72;5048822;23;20235;-76
2022/04/04 00:39:15;;;;;;;3.70;1.63;;;;;;;5.05;100.00;101500.91;5039776;28;20996;-74
2022/04/04 00:41:42;;;;;;;2.40;1.60;;;;;;;4.74;100.00;101464.81;5044604;28;20491;-75
2022/04/04 00:44:08;;;;;;;2.50;1.60;;;;;;;4.73;100.00;101492.34;5039173;28;20441;-75
2022/04/04 00:46:35;;;;;;;3.97;1.30;;;;;;;4.46;100.00;101432.03;5029133;28;21030;-75
2022/04/04 00:49:01;;;;;;;19.00;2.47;;;;;;;4.59;100.00;101468.88;5015414;28;20192;-74
2022/04/04 00:51:26;;;;;;;3.70;1.40;;;;;;;4.54;100.00;101468.47;5022610;28;20853;-76
2022/04/04 00:53:51;;;;;;;3.40;1.57;;;;;;;4.56;100.00;101469.16;5017956;28;20275;-75
2022/04/04 00:56:17;;;;;;;5.93;1.67;;;;;;;4.06;100.00;101369.38;5020745;28;20229;-76
2022/04/04 00:58:43;;;;;;;2.10;1.43;;;;;;;4.72;100.00;101455.28;5017174;28;20301;-76
2022/04/04 01:01:08;;;;;;;1.93;1.30;;;;;;;4.34;100.00;101380.06;5019192;28;20276;-75
2022/04/04 01:03:33;;;;;;;1.70;1.60;;;;;;;4.34;100.00;101366.78;5017389;28;20318;-75
2022/04/04 01:05:59;;;;;;;1.53;1.30;;;;;;;4.21;100.00;101343.19;5018800;28;21152;-75
2022/04/04 01:08:25;;;;;;;2.90;1.30;;;;;;;4.81;100.00;101425.19;5020969;28;20667;-75
2022/04/04 01:10:51;;;;;;;2.63;1.43;;;;;;;4.54;100.00;101418.00;5016389;28;20216;-75
2022/04/04 01:13:16;;;;;;;5.40;1.90;;;;;;;4.47;100.00;101399.16;5019502;28;20457;-75
2022/04/04 01:15:42;;;;;;;4.43;1.60;;;;;;;4.28;100.00;101338.97;5022042;28;20188;-75
2022/04/04 01:18:11;;;;;;;1.50;1.27;;;;;;;4.51;100.00;101416.50;5016433;28;20302;-76
2022/04/04 01:20:37;;;;;;;12.50;1.90;;;;;;;4.08;100.00;101316.97;5017987;28;20664;-76
2022/04/04 01:23:04;;;;;;;2.97;1.77;;;;;;;4.42;100.00;101382.81;5018249;28;20461;-76
2022/04/04 01:25:32;;;;;;;2.47;2.27;;;;;;;4.55;100.00;101371.88;5019524;28;20531;-74
2022/04/04 01:27:59;;;;;;;2.60;1.80;;;;;;;4.55;100.00;101371.88;5018813;28;20499;-75
2022/04/04 01:30:26;;;;;;;2.87;1.77;;;;;;;3.89;100.00;101300.25;5020796;28;20844;-75
2022/04/04 01:32:52;;;;;;;3.57;2.40;;;;;;;4.13;100.00;101356.34;5014779;28;20454;-74
2022/04/04 01:35:19;;;;;;;2.30;1.97;;;;;;;3.95;100.00;101320.91;5016654;28;20530;-75
2022/04/04 01:37:45;;;;;;;8.23;2.57;;;;;;;4.48;100.00;101370.75;5019667;28;20521;-75
2022/04/04 01:40:11;;;;;;;5.03;2.50;;;;;;;4.42;100.00;101319.06;5017727;28;20980;-75
2022/04/04 01:42:38;;;;;;;5.33;2.73;;;;;;;4.78;100.00;101360.84;5019927;28;20543;-76
2022/04/04 01:45:09;;;;;;;3.80;2.40;;;;;;;4.57;100.00;101321.22;5017209;28;20693;-74
2022/04/04 01:47:35;;;;;;;5.77;3.00;;;;;;;4.27;100.00;101262.94;5017394;28;20463;-75
2022/04/04 01:50:01;;;;;;;3.60;2.30;;;;;;;3.97;100.00;101255.25;5015228;28;20455;-75
2022/04/04 01:52:26;;;;;;;3.70;2.87;;;;;;;4.26;100.00;101306.41;5019507;28;20439;-76
2022/04/04 01:54:52;;;;;;;13.23;3.30;;;;;;;4.14;100.00;101278.38;5020201;28;20189;-75
2022/04/04 01:57:17;;;;;;;5.40;3.87;;;;;;;3.79;100.00;101240.09;5017085;28;20213;-75
2022/04/04 01:59:43;;;;;;;4.20;2.83;;;;;;;4.61;100.00;101309.34;5016084;28;20211;-75
2022/04/04 02:02:09;;;;;;;4.93;3.97;;;;;;;4.44;100.00;101289.69;5016785;28;20676;-75
2022/04/04 02:04:35;;;;;;;5.27;4.20;;;;;;;3.93;100.00;101198.13;5018826;28;20431;-76
2022/04/04 02:07:01;;;;;;;8.90;4.30;;;;;;;4.41;100.00;101290.00;5020374;28;20204;-75
2022/04/04 02:09:26;;;;;;;6.30;4.60;;;;;;;4.51;100.00;101267.72;5017438;28;20188;-75
2022/04/04 02:11:52;;;;;;;5.20;4.37;;;;;;;4.44;100.00;101252.50;5016912;28;20823;-75
2022/04/04 02:14:17;;;;;;;8.10;5.20;;;;;;;4.61;100.00;101261.50;5017799;28;20670;-75
2022/04/04 02:16:43;;;;;;;11.70;4.63;;;;;;;4.52;100.00;101264.06;5011069;28;20215;-75
2022/04/04 02:19:09;;;;;;;5.90;4.60;;;;;;;4.32;100.00;101182.84;5018456;28;20208;-75
2022/04/04 02:21:36;;;;;;;5.77;4.97;;;;;;;4.69;100.00;101243.81;5014257;28;20444;-75
2022/04/04 02:24:02;;;;;;;6.60;4.83;;;;;;;4.36;100.00;101151.50;5016511;28;20455;-75
2022/04/04 02:26:27;;;;;;;6.67;5.10;;;;;;;4.26;100.00;101180.78;5015649;28;20540;-75
2022/04/04 02:28:53;;;;;;;6.13;5.53;;;;;;;4.56;100.00;101237.19;5016034;28;20447;-75
2022/04/04 02:31:18;;;;;;;9.30;5.20;;;;;;;4.17;100.00;101141.84;5014021;28;20236;-75
2022/04/04 02:33:44;;;;;;;9.80;5.73;;;;;;;4.07;100.00;101161.31;5018343;28;20195;-75
2022/04/04 02:36:10;;;;;;;8.90;5.10;;;;;;;4.65;100.00;101207.91;5014113;28;20220;-75
2022/04/04 02:38:35;;;;;;;14.83;6.90;;;;;;;4.56;100.00;101203.50;5015101;28;20729;-75
2022/04/04 02:41:01;;;;;;;8.07;6.00;;;;;;;4.47;100.00;101169.88;5016281;28;20197;-75
2022/04/04 02:43:26;;;;;;;7.73;6.03;;;;;;;4.35;100.00;101142.69;5017827;28;20270;-74
2022/04/04 02:45:52;;;;;;;6.13;5.53;;;;;;;4.07;100.00;101124.13;5013240;28;20192;-74
2022/04/04 02:48:17;;;;;;;8.90;6.10;;;;;;;4.19;100.00;101105.34;5016637;28;20173;-76
2022/04/04 02:50:44;;;;;;;8.53;6.23;;;;;;;4.74;100.00;101174.25;5016945;28;20548;-75
2022/04/04 02:53:10;;;;;;;7.33;6.33;;;;;;;4.59;100.00;101159.84;5015133;28;20203;-74
2022/04/04 02:58:19;;;;;;;8.03;6.67;;;;;;;4.34;100.00;101105.66;5019706;28;20466;-74
2022/04/04 03:00:45;;;;;;;9.90;6.80;;;;;;;4.25;100.00;101060.47;5018631;28;20439;-74
2022/04/04 03:03:11;;;;;;;9.17;6.70;;;;;;;4.25;100.00;101057.81;5016137;28;21361;-74
2022/04/04 03:05:37;;;;;;;14.37;7.10;;;;;;;4.92;100.00;101121.94;5016221;28;20193;-75
2022/04/04 03:08:04;;;;;;;8.53;7.10;;;;;;;4.48;100.00;101058.16;5015774;28;20471;-75
2022/04/04 03:10:30;;;;;;;7.97;6.37;;;;;;;4.79;100.00;101102.06;5017507;28;20447;-75
2022/04/04 03:12:56;;;;;;;8.80;7.07;;;;;;;4.99;100.00;101098.22;5010336;28;20449;-75
2022/04/04 03:15:23;;;;;;;10.77;6.37;;;;;;;5.06;100.00;101095.75;5017535;28;20447;-75
2022/04/04 03:17:52;;;;;;;7.23;6.30;;;;;;;4.48;100.00;101018.31;5017059;28;20224;-75
2022/04/04 03:20:19;;;;;;;7.70;6.90;;;;;;;4.70;100.00;101082.56;5015282;28;20593;-74
2022/04/04 03:22:56;;;;;;;11.20;6.80;;;;;;;4.67;100.00;101059.78;5020098;28;20813;-75
2022/04/04 03:25:22;;;;;;;11.87;7.80;;;;;;;4.63;100.00;101055.78;5012289;28;20470;-73
2022/04/04 03:27:48;;;;;;;8.63;7.40;;;;;;;4.61;100.00;101079.00;5015471;28;20506;-75
2022/04/04 03:30:18;;;;;;;12.17;7.47;;;;;;;4.58;100.00;101047.44;5016683;28;21330;-75
2022/04/04 03:32:46;;;;;;;10.63;7.33;;;;;;;4.65;100.00;101015.75;5018754;28;20442;-75
2022/04/04 03:35:15;;;;;;;8.60;7.40;;;;;;;4.73;100.00;101042.41;5014564;28;20931;-75
2022/04/04 03:37:43;;;;;;;10.13;7.63;;;;;;;4.18;100.00;100978.91;5015687;28;20471;-74
2022/04/04 03:40:12;;;;;;;10.80;7.47;;;;;;;4.55;100.00;100989.31;5016981;28;20455;-74
2022/04/04 03:42:38;;;;;;;9.77;6.70;;;;;;;5.06;100.00;101051.38;5013344;28;20442;-74
2022/04/04 03:45:07;;;;;;;9.80;7.70;;;;;;;5.16;100.00;101041.50;5014978;28;20466;-75
2022/04/04 03:47:33;;;;;;;12.77;8.00;;;;;;;4.80;100.00;101024.81;5016977;28;20466;-74
2022/04/04 03:49:59;;;;;;;8.20;6.50;;;;;;;4.89;100.00;101023.03;5017797;28;20451;-74
2022/04/04 03:52:25;;;;;;;10.90;7.53;;;;;;;4.86;100.00;101016.25;5014381;28;20198;-74
2022/04/04 03:54:51;;;;;;;8.70;7.30;;;;;;;4.89;100.00;101009.75;5016943;28;20216;-74
2022/04/04 03:57:17;;;;;;;10.77;8.00;;;;;;;4.70;100.00;100939.91;5012792;28;20811;-73
2022/04/04 03:59:43;;;;;;;18.00;7.90;;;;;;;4.80;100.00;100965.53;5014355;28;20463;-73
2022/04/04 04:02:09;;;;;;;10.20;7.30;;;;;;;4.87;100.00;100942.66;5015662;28;20184;-73
2022/04/04 04:04:34;;;;;;;10.27;8.10;;;;;;;4.96;100.00;100970.94;5018048;28;20805;-73
2022/04/04 04:06:59;;;;;;;12.10;8.47;;;;;;;4.23;100.00;100921.69;5014995;28;20220;-72
2022/04/04 04:09:25;;;;;;;11.10;8.17;;;;;;;4.72;100.00;100918.50;5015040;28;20188;-73
2022/04/04 04:11:50;;;;;;;9.63;8.63;;;;;;;4.32;100.00;100877.44;5016007;28;20277;-72
2022/04/04 04:14:16;;;;;;;11.90;7.60;;;;;;;4.49;100.00;100875.72;5014399;28;20204;-72
2022/04/04 04:16:41;;;;;;;10.43;8.23;;;;;;;4.27;100.00;100853.19;5012250;28;20287;-73
2022/04/04 04:20:19;;;;;;;10.33;8.10;;;;;;;4.95;100.00;100929.41;5015056;28;20223;-72
2022/04/04 04:21:52;;;;;;;11.50;8.40;;;;;;;4.68;100.00;100899.38;5017985;28;20279;-72
2022/04/04 04:24:17;;;;;;;11.77;8.03;;;;;;;4.62;100.00;100934.53;5019629;28;20530;-71
2022/04/04 04:26:43;;;;;;;12.70;8.87;;;;;;;4.68;100.00;100911.81;5014121;28;20246;-72
2022/04/04 04:29:08;;;;;;;11.87;9.07;;;;;;;4.70;100.00;100899.22;5017318;28;20271;-73
2022/04/04 04:31:34;;;;;;;9.83;8.80;;;;;;;4.71;100.00;100869.81;5013928;28;20223;-74
2022/04/04 04:34:00;;;;;;;10.80;8.10;;;;;;;4.88;100.00;100894.63;5019170;28;20199;-74
2022/04/04 04:36:26;;;;;;;14.30;8.70;;;;;;;4.76;100.00;100888.78;5017960;28;20994;-74
2022/04/04 04:38:51;;;;;;;14.37;10.27;;;;;;;4.89;100.00;100871.53;5019356;28;20462;-75
2022/04/04 04:41:17;;;;;;;13.50;9.80;;;;;;;4.72;100.00;100838.78;5019523;28;20201;-74
2022/04/04 04:43:42;;;;;;;10.97;9.57;;;;;;;4.84;100.00;100812.75;5020465;28;20188;-75
2022/04/04 04:46:08;;;;;;;9.93;8.77;;;;;;;4.72;100.00;100828.16;5018250;28;20266;-74
2022/04/04 04:48:33;;;;;;;12.63;10.03;;;;;;;4.40;100.00;100799.66;5015557;28;20188;-75
2022/04/04 04:50:58;;;;;;;13.50;9.70;;;;;;;4.98;100.00;100855.47;5017588;28;20196;-76
2022/04/04 04:53:24;;;;;;;13.00;9.60;;;;;;;4.18;100.00;100761.19;5021375;28;20196;-75
2022/04/04 04:55:49;;;;;;;12.53;9.30;;;;;;;4.62;100.00;100846.03;5017648;28;20211;-74
2022/04/04 04:58:15;;;;;;;17.43;9.70;;;;;;;4.70;100.00;100840.78;5015083;28;20261;-75
2022/04/04 05:00:41;;;;;;;13.30;8.40;;;;;;;4.92;100.00;100818.09;5015546;28;20184;-75
2022/04/04 05:03:24;;;;;;;11.63;8.10;;;;;;;4.52;100.00;100747.91;5020826;28;20192;-75
2022/04/04 05:05:50;;;;;;;10.70;8.97;;;;;;;4.79;100.00;100813.22;5015484;28;20306;-76
2022/04/04 05:08:15;;;;;;;14.10;8.97;;;;;;;4.40;100.00;100738.56;5015338;28;20542;-74
2022/04/04 05:10:41;;;;;;;13.77;10.10;;;;;;;4.71;100.00;100770.69;5016300;28;20204;-76
2022/04/04 05:13:06;;;;;;;9.93;8.93;;;;;;;4.47;100.00;100726.28;5011770;28;20624;-75
2022/04/04 05:15:32;;;;;;;14.23;8.90;;;;;;;4.70;100.00;100779.66;5013028;28;20200;-75
2022/04/04 05:17:57;;;;;;;10.23;8.37;;;;;;;5.11;100.00;100766.44;5011303;28;20217;-76
2022/04/04 05:20:23;;;;;;;12.00;8.90;;;;;;;4.66;100.00;100768.53;5016190;28;20971;-77
2022/04/04 05:22:49;;;;;;;15.60;9.43;;;;;;;5.05;100.00;100761.78;5013829;28;20184;-76
2022/04/04 05:25:15;;;;;;;11.50;9.40;;;;;;;4.82;100.00;100762.41;5013294;28;20466;-75
2022/04/04 05:27:41;;;;;;;11.50;9.00;;;;;;;4.94;100.00;100769.06;5010446;28;20429;-76
2022/04/04 05:30:08;;;;;;;12.50;9.07;;;;;;;4.65;100.00;100734.97;5008882;28;20435;-77
2022/04/04 05:32:34;;;;;;;12.10;9.30;;;;;;;4.52;100.00;100716.03;5015786;28;20449;-75
2022/04/04 05:35:00;;;;;;;13.23;8.50;;;;;;;4.59;100.00;100710.88;5013046;28;20936;-75
2022/04/04 05:37:26;;;;;;;11.93;8.93;;;;;;;4.79;100.00;100708.75;5007980;28;20467;-75
2022/04/04 05:39:51;;;;;;;17.40;9.23;;;;;;;4.84;100.00;100744.47;5008013;28;20477;-77
2022/04/04 05:42:17;;;;;;;8.83;7.93;;;;;;;4.18;100.00;100588.66;5012128;28;20586;-77
2022/04/04 05:44:42;;;;;;;10.67;8.80;;;;;;;4.69;100.00;100671.72;5012252;28;20906;-77
2022/04/04 05:47:09;;;;;;;10.97;7.70;;;;;;;5.05;100.00;100729.88;5013564;28;20218;-75
2022/04/04 05:49:35;;;;;;;12.53;8.70;;;;;;;4.81;100.00;100673.06;5014744;28;20215;-80
2022/04/04 05:52:00;;;;;;;10.57;8.50;;;;;;;4.97;100.00;100717.41;5013015;28;20581;-78
2022/04/04 05:54:26;;;;;;;13.03;8.13;;;;;;;4.89;100.00;100717.38;5011423;28;20197;-78
2022/04/04 05:56:51;;;;;;;11.53;9.70;;;;;;;4.28;100.00;100621.16;5014285;28;20231;-77
2022/04/04 05:59:17;;;;;;;32.20;9.43;;;;;;;4.67;100.00;100673.72;5013137;28;20221;-77
2022/04/04 06:01:42;;;;;;;12.30;7.80;;;;;;;4.84;100.00;100687.84;5015708;28;20608;-78
2022/04/04 06:04:07;;;;;;;11.60;8.07;;;;;;;4.73;100.00;100702.28;5010002;28;20274;-80
2022/04/04 06:06:33;;;;;;;11.97;7.93;;;;;;;4.38;100.00;100671.50;5015450;28;20362;-80
2022/04/04 06:08:59;;;;;;;15.63;8.13;;;;;;;4.46;100.00;100668.88;5015658;28;20184;-78
2022/04/04 06:11:24;;;;;;;11.30;7.60;;;;;;;4.76;100.00;100702.78;5014391;28;20230;-80
2022/04/04 06:13:49;;;;;;;13.43;8.20;;;;;;;4.51;100.00;100650.59;5013661;28;20191;-81
2022/04/04 06:16:15;;;;;;;11.57;7.93;;;;;;;4.53;100.00;100646.78;5012154;28;20254;-80
2022/04/04 06:18:41;;;;;;;14.80;9.17;;;;;;;4.38;100.00;100599.81;5011407;28;20852;-80
2022/04/04 06:21:07;;;;;;;10.03;7.60;;;;;;;4.69;100.00;100669.91;5015459;28;20192;-79
2022/04/04 06:23:33;;;;;;;9.03;7.30;;;;;;;4.15;100.00;100595.09;5011511;28;20489;-80
2022/04/04 06:26:00;;;;;;;12.43;7.70;;;;;;;4.63;100.00;100648.44;5011481;28;20219;-73
2022/04/04 06:28:27;;;;;;;9.47;7.23;;;;;;;4.39;100.00;100593.47;5012111;28;20474;-78
2022/04/04 06:30:54;;;;;;;8.73;7.33;;;;;;;4.39;100.00;100609.41;5013320;28;20446;-77
2022/04/04 06:33:19;;;;;;;9.50;6.77;;;;;;;4.86;100.00;100660.13;5006486;28;20501;-77
2022/04/04 06:35:47;;;;;;;8.93;7.03;;;;;;;4.82;100.00;100661.41;5015718;28;20850;-76
2022/04/04 06:38:14;;;;;;;7.60;5.60;;;;;;;4.40;100.00;100597.81;5042749;23;20328;-73
2022/04/04 06:40:40;;;;;;;10.63;6.97;;;;;;;4.62;100.00;100599.81;5036234;28;20454;-74
2022/04/04 06:43:05;;;;;;;6.33;5.27;;;;;;;4.60;100.00;100603.63;5032369;28;20534;-73
2022/04/04 06:45:31;;;;;;;35.13;5.30;;;;;;;4.76;100.00;100615.06;5036559;28;20723;-70
2022/04/04 06:47:57;;;;;;;69.83;7.87;;;;;;;4.40;100.00;100539.41;5029924;28;20475;-75
2022/04/04 06:50:23;;;;;;;9.70;5.10;;;;;;;4.85;100.00;100637.16;5037962;28;20195;-72
2022/04/04 06:52:48;;;;;;;8.27;4.90;;;;;;;4.71;100.00;100569.56;5036789;28;20321;-73
2022/04/04 06:55:15;;;;;;;8.50;5.10;;;;;;;4.43;100.00;100528.44;5037317;28;20446;-73
2022/04/04 06:57:41;;;;;;;6.70;5.23;;;;;;;4.76;100.00;100587.69;5022626;28;20911;-73
2022/04/04 07:00:08;;;;;;;8.57;4.80;;;;;;;4.81;100.00;100603.13;5024681;28;20465;-73
2022/04/04 07:02:35;;;;;;;8.77;5.20;;;;;;;4.30;100.00;100516.47;5035353;28;20481;-74
2022/04/04 07:05:04;;;;;;;5.70;4.43;;;;;;;4.59;100.00;100570.09;5035926;28;20523;-74
2022/04/04 07:07:30;;;;;;;5.87;4.27;;;;;;;4.48;100.00;100544.69;5029350;28;20457;-73
2022/04/04 07:09:56;;;;;;;5.93;3.90;;;;;;;4.75;100.00;100570.91;5030516;28;20450;-73
2022/04/04 07:12:22;;;;;;;3.70;2.50;;;;;;;4.13;100.00;100485.59;5032932;28;20560;-73
2022/04/04 07:14:47;;;;;;;3.43;2.30;;;;;;;4.77;100.00;100562.75;5036240;28;20449;-73
2022/04/04 07:17:13;;;;;;;4.23;2.53;;;;;;;4.44;100.00;100501.69;5033169;28;20306;-73
2022/04/04 07:19:38;;;;;;;5.37;2.87;;;;;;;4.46;100.00;100512.16;5033999;28;20217;-73
2022/04/04 07:22:04;;;;;;;5.93;2.90;;;;;;;4.62;100.00;100564.44;5031946;28;20199;-76
2022/04/04 07:24:29;;;;;;;2.77;2.40;;;;;;;4.47;100.00;100482.78;5031550;28;20583;-73
2022/04/04 07:26:56;;;;;;;5.70;3.07;;;;;;;4.75;100.00;100591.34;5031202;28;20288;-71
2022/04/04 07:29:21;;;;;;;3.97;2.60;;;;;;;4.51;100.00;100515.97;5034690;28;20184;-72
2022/04/04 07:31:47;;;;;;;4.27;2.33;;;;;;;4.69;100.00;100518.44;5037072;28;20504;-73
2022/04/04 07:34:12;;;;;;;4.33;3.33;;;;;;;4.30;100.00;100454.56;5034101;28;20252;-73
2022/04/04 07:36:41;;;;;;;7.50;4.30;;;;;;;4.74;100.00;100516.13;5035258;28;20271;-74
2022/04/04 07:39:08;;;;;;;5.07;3.90;;;;;;;4.56;100.00;100475.63;5032749;28;20316;-74
2022/04/04 07:41:34;;;;;;;7.27;4.10;;;;;;;3.67;100.00;100347.28;5035096;28;20460;-73
2022/04/04 07:44:00;;;;;;;9.20;4.30;;;;;;;4.47;100.00;100458.03;5032248;28;21060;-75
2022/04/04 07:46:26;;;;;;;4.93;3.90;;;;;;;4.64;100.00;100493.38;5037981;28;20272;-72
2022/04/04 07:48:55;;;;;;;4.43;4.00;;;;;;;4.46;100.00;100456.41;5029285;28;20476;-73
2022/04/04 07:51:21;;;;;;;3.90;3.53;;;;;;;4.80;100.00;100476.56;5025982;28;20441;-74
2022/04/04 07:53:46;;;;;;;7.67;5.13;;;;;;;3.75;100.00;100325.25;5025559;28;20928;-73
2022/04/04 07:56:12;;;;;;;7.00;5.77;;;;;;;4.23;100.00;100371.31;5033681;28;20450;-73
2022/04/04 07:58:37;;;;;;;8.43;6.43;;;;;;;4.20;100.00;100404.31;5030598;28;20733;-72
2022/04/04 08:01:03;;;;;;;8.03;6.53;;;;;;;4.47;100.00;100426.19;5039023;28;20183;-73
2022/04/04 08:03:29;;;;;;;8.20;5.20;;;;;;;4.68;100.00;100452.19;5048105;28;20196;-72
2022/04/04 08:05:55;;;;;;;9.30;5.60;;;;;;;4.56;100.00;100413.72;5040782;28;20253;-73
2022/04/04 08:08:20;;;;;;;7.60;6.47;;;;;;;4.78;100.00;100420.13;5034850;28;20454;-72
2022/04/04 08:10:45;;;;;;;8.33;5.80;;;;;;;4.74;100.00;100415.16;5053480;28;21368;-73
2022/04/04 08:13:11;;;;;;;9.17;5.50;;;;;;;4.93;100.00;100431.69;5030516;28;20195;-72
2022/04/04 08:15:36;;;;;;;6.33;5.00;;;;;;;4.53;100.00;100364.41;5037985;28;20635;-73
2022/04/04 08:18:03;;;;;;;7.60;5.20;;;;;;;4.60;100.00;100394.63;5043007;28;20290;-73
2022/04/04 08:20:29;;;;;;;6.80;5.57;;;;;;;4.76;100.00;100420.28;5040867;28;20188;-72
2022/04/04 08:22:54;;;;;;;5.70;5.07;;;;;;;4.82;100.00;100395.69;5041138;28;20507;-73
2022/04/04 08:25:20;;;;;;;5.17;4.23;;;;;;;4.40;100.00;100313.69;5029809;28;20202;-73
2022/04/04 08:27:46;;;;;;;5.33;4.30;;;;;;;4.99;100.00;100397.28;5044162;28;20294;-73
2022/04/04 08:30:14;;;;;;;6.53;4.77;;;;;;;4.97;100.00;100388.63;5037929;28;20249;-73
2022/04/04 08:32:41;;;;;;;5.03;4.00;;;;;;;4.85;100.00;100365.28;5042900;28;20439;-73
2022/04/04 08:35:09;;;;;;;11.90;4.23;;;;;;;4.85;100.00;100384.72;5039252;28;20967;-73
2022/04/04 08:37:36;;;;;;;5.97;3.60;;;;;;;4.96;100.00;100352.44;5042002;28;20490;-73
2022/04/04 08:40:03;;;;;;;4.17;3.10;;;;;;;4.63;100.00;100316.38;5042161;28;20469;-73
2022/04/04 08:42:29;;;;;;;3.40;3.03;;;;;;;4.61;100.00;100308.59;5042592;28;21016;-73
2022/04/04 08:45:00;;;;;;;4.60;3.43;;;;;;;5.08;100.00;100379.44;5040168;28;20438;-74
2022/04/04 08:47:27;;;;;;;3.53;2.83;;;;;;;4.74;100.00;100331.94;5039532;28;20273;-73
2022/04/04 08:49:54;;;;;;;4.60;3.50;;;;;;;5.27;100.00;100351.59;5039254;28;20487;-73
2022/04/04 08:52:21;;;;;;;7.43;3.30;;;;;;;4.99;100.00;100322.03;5031274;28;20446;-73
2022/04/04 08:54:47;;;;;;;10.70;3.60;;;;;;;5.05;100.00;100331.13;5039572;28;20845;-73
2022/04/04 08:57:13;;;;;;;5.10;3.13;;;;;;;4.81;100.00;100290.41;5036454;28;20549;-72
2022/04/04 08:59:39;;;;;;;5.70;3.93;;;;;;;5.14;100.00;100299.00;5036948;28;20498;-73
2022/04/04 09:02:05;;;;;;;3.70;2.80;;;;;;;5.25;100.00;100336.81;5035910;28;20534;-74
2022/04/04 09:04:33;;;;;;;4.50;3.00;;;;;;;5.41;100.00;100321.59;5035015;28;20198;-73
2022/04/04 09:07:05;;;;;;;4.53;2.50;;;;;;;5.17;100.00;100273.88;5035039;28;20473;-73
2022/04/04 09:09:45;;;;;;;4.90;2.43;;;;;;;5.46;100.00;100314.91;5035728;28;20938;-74
2022/04/04 09:12:13;;;;;;;2.43;2.23;;;;;;;5.48;100.00;100321.69;5036969;28;20446;-73
2022/04/04 09:14:47;;;;;;;2.70;2.50;;;;;;;5.59;100.00;100318.63;5032319;28;20993;-73
2022/04/04 09:17:15;;;;;;;3.23;2.50;;;;;;;5.53;100.00;100319.34;5034083;28;20887;-74
2022/04/04 09:19:41;;;;;;;2.93;2.20;;;;;;;5.55;100.00;100293.34;5039119;28;20478;-73
2022/04/04 09:22:12;;;;;;;2.37;1.80;;;;;;;5.57;100.00;100299.34;5034507;28;20858;-74
2022/04/04 09:24:46;;;;;;;2.03;1.80;;;;;;;5.61;100.00;100308.63;5036251;28;20187;-74
2022/04/04 09:27:22;;;;;;;4.83;2.40;;;;;;;5.58;100.00;100276.22;5026520;22;20875;-73
2022/04/04 09:29:53;;;;;;;4.37;2.10;;;;;;;5.69;100.00;100273.13;4997549;28;20908;-74
2022/04/04 09:32:19;;;;;;;2.20;1.63;;;;;;;5.62;100.00;100251.75;5000771;28;20443;-76
2022/04/04 09:34:52;;;;;;;5.60;2.30;;;;;;;5.74;100.00;100264.59;4999609;28;20976;-75
2022/04/04 09:37:19;;;;;;;2.20;1.90;;;;;;;5.59;100.00;100227.34;4997901;28;20216;-74
2022/04/04 09:39:44;;;;;;;6.70;2.03;;;;;;;5.81;100.00;100257.53;4997060;28;21147;-74
2022/04/04 09:42:18;;;;;;;2.50;1.67;;;;;;;5.78;100.00;100237.44;4999433;28;20478;-74
2022/04/04 09:45:02;;;;;;;4.73;1.93;;;;;;;5.76;100.00;100210.19;4998009;28;20183;-74
2022/04/04 09:47:50;;;;;;;3.07;1.40;;;;;;;5.93;100.00;100232.19;5000465;28;20590;-74
2022/04/04 09:50:41;;;;;;;73.47;7.00;;;;;;;5.88;100.00;100222.03;4982779;28;20454;-77
2022/04/04 09:53:08;;;;;;;11.83;3.10;;;;;;;5.91;100.00;100220.84;4997042;28;20444;-71
2022/04/04 09:55:36;;;;;;;1.70;1.60;;;;;;;5.95;100.00;100210.69;5002093;28;21313;-72
2022/04/04 09:58:17;;;;;;;2.27;1.40;;;;;;;5.71;100.00;100179.81;4996260;28;20464;-72
2022/04/04 10:00:44;;;;;;;3.00;1.57;;;;;;;5.93;100.00;100204.69;4995259;28;20442;-73
2022/04/04 10:03:13;;;;;;;4.53;1.70;;;;;;;5.90;100.00;100213.84;4999483;28;20439;-72
2022/04/04 10:05:42;;;;;;;2.10;1.40;;;;;;;5.90;100.00;100195.22;4999296;28;20912;-72
2022/04/04 10:08:09;;;;;;;1.80;1.60;;;;;;;5.73;100.00;100156.50;5001666;28;20476;-71
2022/04/04 10:10:36;;;;;;;6.37;1.80;;;;;;;5.53;100.00;100109.19;5001482;28;20831;-73
2022/04/04 10:13:02;;;;;;;3.80;1.80;;;;;;;6.06;100.00;100202.25;5000124;28;20444;-71
2022/04/04 10:15:27;;;;;;;2.07;1.20;;;;;;;6.10;100.00;100192.84;4975855;28;20447;-72
2022/04/04 10:17:55;;;;;;;1.80;1.23;;;;;;;6.14;100.00;100193.34;4980152;28;20708;-73
2022/04/04 10:20:21;;;;;;;6.20;1.90;;;;;;;6.06;100.00;100186.25;4998298;28;20719;-72
2022/04/04 10:22:49;;;;;;;1.30;1.20;;;;;;;5.81;100.00;100143.09;4994131;28;20830;-74
2022/04/04 10:25:16;;;;;;;1.37;1.03;;;;;;;6.07;100.00;100178.06;5003218;28;20471;-72
2022/04/04 10:27:46;;;;;;;2.73;1.33;;;;;;;5.67;100.00;100139.47;4999693;28;20470;-72
2022/04/04 10:30:12;;;;;;;4.70;1.73;;;;;;;6.15;100.00;100185.16;5001632;28;20447;-72
2022/04/04 10:32:49;;;;;;;2.00;1.20;;;;;;;5.82;100.00;100115.50;5004686;28;20439;-73
2022/04/04 10:35:23;;;;;;;1.97;1.40;;;;;;;6.14;100.00;100158.72;5003911;28;20539;-72
2022/04/04 10:37:49;;;;;;;2.30;1.30;;;;;;;6.10;100.00;100158.25;5000946;28;20505;-72
2022/04/04 10:40:23;;;;;;;2.30;1.40;;;;;;;6.18;100.00;100159.97;4981769;28;20461;-73
2022/04/04 10:43:09;;;;;;;1.40;1.30;;;;;;;6.17;100.00;100156.50;5005328;28;20435;-72
2022/04/04 10:45:54;;;;;;;4.20;1.30;;;;;;;6.20;100.00;100165.97;5001222;28;20947;-73
2022/04/04 10:48:20;;;;;;;2.57;1.30;;;;;;;6.03;100.00;100134.22;5003670;28;20547;-71
2022/04/04 10:50:46;;;;;;;2.70;1.20;;;;;;;6.04;100.00;100117.22;5000192;28;20450;-72
2022/04/04 10:53:12;;;;;;;2.70;1.47;;;;;;;6.05;100.00;100145.50;4995421;28;20462;-71
2022/04/04 10:55:37;;;;;;;2.93;1.17;;;;;;;6.19;100.00;100167.81;4994145;28;20436;-71
2022/04/04 10:58:15;;;;;;;1.97;1.77;;;;;;;6.08;100.00;100113.19;4997563;28;20229;-71
2022/04/04 11:01:17;;;;;;;2.40;1.60;;;;;;;6.32;100.00;100159.94;4994302;28;20539;-71
2022/04/04 11:03:48;;;;;;;1.20;1.10;;;;;;;6.38;100.00;100146.91;4939140;28;20452;-71
2022/04/04 11:09:11;;;;;;;1.80;1.03;;;;;;;6.33;100.00;100150.13;5001463;28;20431;-71
2022/04/04 11:12:00;;;;;;;4.13;1.70;;;;;;;6.29;100.00;100136.34;4992682;28;20816;-71
2022/04/04 11:14:28;;;;;;;1.80;1.40;;;;;;;6.09;100.00;100090.03;4992162;28;20486;-71
2022/04/04 11:17:06;;;;;;;3.73;1.10;;;;;;;6.46;100.00;100147.59;4981095;28;20964;-71
2022/04/04 11:19:47;;;;;;;1.60;0.93;;;;;;;6.43;100.00;100142.66;4996138;28;20464;-70
2022/04/04 11:22:18;;;;;;;2.67;1.30;;;;;;;6.41;100.00;100126.03;4998814;28;20963;-71
2022/04/04 11:24:49;;;;;;;0.80;0.80;;;;;;;6.42;100.00;100109.06;4994715;28;20444;-70
2022/04/04 11:27:15;;;;;;;3.10;0.80;;;;;;;6.29;100.00;100074.28;4995009;28;20566;-70